Arctic Taglu — CY8968 — position and weather

sailwx.info

Track history (hours):
 
Tides and Currents Weather Stations Pressure Air Temp Water Temp Dewpoint Dewpoint Depression Visibility Wind Speed Wind Dir Waves Ship Positions

Arctic Taglu

Last reported at 2016-May-28 18:33 UTC. Time now 2016-May-30 14:36 UTC.
Position N 49°08' W 123°03'.

Length 33 m; draft 6 m.

Type: Tug. MMSI: 316003483.

Date/timePositionNaut miles runAvg speedWind from/ knotsBaromVisibWave heightAir tempDewpointWater temp
2016-May-28 18:33N 49°08' W 123°03'0 0.4
2016-May-28 17:33N 49°09' W 123°02'0 0.1
2016-May-28 16:33N 49°09' W 123°02'7 6.6
2016-May-28 15:33N 49°07' W 123°12'6 6.3
2016-May-28 14:33N 49°05' W 123°21'9 8.8
2016-May-28 13:34N 48°56' W 123°19'8 8.1
2016-May-28 12:33N 48°48' W 123°21'7 6.6
2016-May-28 11:26N 48°41' W 123°24'0 0.0
2016-May-28 10:33N 48°41' W 123°24'4 3.9
2016-May-28 09:33N 48°44' W 123°21'10 9.8
2016-May-28 08:33N 48°54' W 123°18'1010.2
2016-May-28 07:33N 49°04' W 123°20'8 8.2
2016-May-28 06:33N 49°07' W 123°08'4 4.3
2016-May-28 05:33N 49°09' W 123°02'0 0.0
2016-May-28 04:33N 49°09' W 123°02'0 0.0
2016-May-28 03:33N 49°09' W 123°02'0 0.0
2016-May-28 02:33N 49°09' W 123°02'0 0.0
2016-May-28 01:33N 49°09' W 123°02'0 0.0
2016-May-28 00:33N 49°09' W 123°02'0 0.0
2016-May-27 23:33N 49°09' W 123°02'0 0.0
2016-May-27 22:33N 49°09' W 123°02'0 0.0
2016-May-27 21:33N 49°09' W 123°02'0 0.0
2016-May-27 20:33N 49°09' W 123°02'0 0.0
2016-May-27 19:33N 49°09' W 123°02'0 0.0
2016-May-27 18:33N 49°09' W 123°02'0 0.0
2016-May-27 17:33N 49°09' W 123°02'4 4.1
2016-May-27 16:33N 49°07' W 123°07'6 5.6
2016-May-27 15:33N 49°07' W 123°16'6 6.2
2016-May-27 14:33N 49°01' W 123°20'8 8.0
2016-May-27 13:33N 48°54' W 123°18'9 8.6
2016-May-27 12:33N 48°45' W 123°22'4 4.3
2016-May-27 11:33N 48°41' W 123°24'0 0.0
2016-May-27 10:33N 48°41' W 123°24'4 4.2
2016-May-27 09:33N 48°45' W 123°21'10 9.7
2016-May-27 08:33N 48°54' W 123°18'1010.2
2016-May-27 07:33N 49°04' W 123°22'9 9.5
2016-May-27 06:33N 49°07' W 123°08'5 4.5
2016-May-27 05:33N 49°09' W 123°02'0 0.0
2016-May-27 04:33N 49°09' W 123°02'0 0.0
2016-May-27 03:33N 49°09' W 123°02'0 0.0
2016-May-27 02:33N 49°09' W 123°02'0 0.0
2016-May-27 01:33N 49°09' W 123°02'0 0.0
2016-May-27 00:33N 49°09' W 123°02'0 0.0
2016-May-26 23:33N 49°09' W 123°02'0 0.0
2016-May-26 22:33N 49°09' W 123°02'0 0.0
2016-May-26 21:33N 49°09' W 123°02'0 0.0
2016-May-26 20:33N 49°09' W 123°02'0 0.0
2016-May-26 19:33N 49°09' W 123°02'0 0.0
2016-May-26 18:33N 49°09' W 123°02'1 0.8
2016-May-26 17:33N 49°08' W 123°03'2 2.0
2016-May-26 16:33N 49°07' W 123°05'5 5.2
2016-May-26 15:33N 49°08' W 123°13'7 6.9
2016-May-26 14:33N 49°03' W 123°21'9 9.2
2016-May-26 13:33N 48°54' W 123°18'8 8.2
2016-May-26 12:33N 48°46' W 123°22'5 4.8
2016-May-26 11:33N 48°41' W 123°24'0 0.0
2016-May-26 10:33N 48°41' W 123°24'4 4.2
2016-May-26 09:33N 48°45' W 123°21'9 9.1
2016-May-26 08:33N 48°54' W 123°18'1010.0
2016-May-26 07:33N 49°04' W 123°21'9 8.8
2016-May-26 06:33N 49°07' W 123°08'4 4.5
2016-May-26 05:33N 49°09' W 123°02'0 0.0
2016-May-26 04:33N 49°09' W 123°02'0 0.0
2016-May-26 03:33N 49°09' W 123°02'0 0.0
2016-May-26 02:33N 49°09' W 123°02'0 0.0
2016-May-26 01:33N 49°09' W 123°02'0 0.0
2016-May-26 00:33N 49°09' W 123°02'0 0.0
2016-May-25 23:33N 49°09' W 123°02'0 0.0
2016-May-25 22:33N 49°09' W 123°02'0 0.0
2016-May-25 21:33N 49°09' W 123°02'0 0.0
2016-May-25 20:33N 49°09' W 123°02'0 0.0
2016-May-25 19:33N 49°09' W 123°02'0 0.0
2016-May-25 18:33N 49°09' W 123°02'0 0.0
2016-May-25 17:33N 49°09' W 123°02'3 3.2
2016-May-25 16:33N 49°07' W 123°06'6 5.8
2016-May-25 15:33N 49°08' W 123°15'6 5.8
2016-May-25 14:33N 49°03' W 123°20'8 8.0
2016-May-25 13:33N 48°55' W 123°18'8 8.1
2016-May-25 12:33N 48°47' W 123°21'6 6.3
2016-May-25 11:33N 48°41' W 123°24'0 0.0
2016-May-25 10:33N 48°41' W 123°24'4 3.9
2016-May-25 09:33N 48°44' W 123°21'9 9.0
2016-May-25 08:33N 48°53' W 123°18'10 9.9
2016-May-25 07:33N 49°03' W 123°21'9 8.6
2016-May-25 06:33N 49°07' W 123°09'5 4.7
2016-May-25 05:33N 49°09' W 123°02'0 0.4
2016-May-25 04:33N 49°08' W 123°03'0 0.1
2016-May-25 03:32N 49°08' W 123°03'0 0.0
2016-May-25 02:32N 49°08' W 123°03'0 0.0
2016-May-25 01:32N 49°08' W 123°03'0 0.0
2016-May-25 00:32N 49°08' W 123°03'  
2016-May-21 20:04N 49°08' W 123°03'0 0.0
2016-May-21 19:34N 49°08' W 123°03'0 0.0
2016-May-21 18:33N 49°08' W 123°03'0 0.5
2016-May-21 17:33N 49°09' W 123°02'5 5.4
2016-May-21 16:34N 49°07' W 123°10'6 5.8
2016-May-21 15:33N 49°06' W 123°19'8 8.3
2016-May-21 14:33N 48°58' W 123°18'7 6.8
2016-May-21 13:33N 48°51' W 123°21'9 8.9
2016-May-21 12:34N 48°43' W 123°24'1 1.4
2016-May-21 11:34N 48°41' W 123°24'0 0.0
2016-May-21 10:33N 48°41' W 123°24'7 7.0
2016-May-21 09:34N 48°48' W 123°21'8 8.0
2016-May-21 08:33N 48°56' W 123°18'1010.3
2016-May-21 07:34N 49°06' W 123°19'1110.5
2016-May-21 06:33N 49°09' W 123°03'1 0.6
2016-May-21 05:34N 49°09' W 123°02'0 0.0
2016-May-21 04:33N 49°09' W 123°02'0 0.0
2016-May-21 03:34N 49°09' W 123°02'0 0.0
2016-May-21 02:33N 49°09' W 123°02'0 0.0
2016-May-21 01:34N 49°09' W 123°02'0 0.0
2016-May-21 00:34N 49°09' W 123°02'0 0.0
2016-May-20 23:33N 49°09' W 123°02'0 0.0
2016-May-20 22:34N 49°09' W 123°02'0 0.0
2016-May-20 21:33N 49°09' W 123°02'0 0.0
2016-May-20 20:33N 49°09' W 123°02'0 0.0
2016-May-20 19:33N 49°09' W 123°02'0 0.0
2016-May-20 18:34N 49°09' W 123°02'0 0.0
2016-May-20 17:33N 49°09' W 123°02'5 4.8
2016-May-20 16:33N 49°06' W 123°09'6 5.6
2016-May-20 15:33N 49°07' W 123°17'7 7.5
2016-May-20 14:33N 48°59' W 123°18'8 7.8
2016-May-20 13:33N 48°52' W 123°20'7 7.3
2016-May-20 12:34N 48°44' W 123°23'3 3.3
2016-May-20 11:34N 48°41' W 123°24'0 0.0
2016-May-20 10:34N 48°41' W 123°24'5 4.7
2016-May-20 09:34N 48°45' W 123°21'8 7.6
2016-May-20 08:33N 48°53' W 123°18'9 9.4
2016-May-20 07:34N 49°02' W 123°20'8 8.2
2016-May-20 06:33N 49°07' W 123°09'5 5.2
2016-May-20 05:33N 49°09' W 123°02'0 0.0
2016-May-20 04:34N 49°09' W 123°02'0 0.0
2016-May-20 03:33N 49°09' W 123°02'0 0.0
2016-May-20 02:33N 49°09' W 123°02'0 0.0
2016-May-20 01:33N 49°09' W 123°02'0 0.0
2016-May-20 00:34N 49°09' W 123°02'0 0.0
2016-May-19 23:34N 49°09' W 123°02'0 0.0
2016-May-19 22:33N 49°09' W 123°02'0 0.0
2016-May-19 21:34N 49°09' W 123°02'0 0.0
2016-May-19 20:33N 49°09' W 123°02'0 0.0
2016-May-19 19:34N 49°09' W 123°02'0 0.0
2016-May-19 18:33N 49°09' W 123°02'1 0.6
2016-May-19 17:33N 49°08' W 123°03'5 4.8
2016-May-19 16:34N 49°07' W 123°10'5 5.3
2016-May-19 15:33N 49°06' W 123°18'7 7.4
2016-May-19 14:33N 48°59' W 123°17'8 7.6
2016-May-19 13:33N 48°52' W 123°20'7 7.1
2016-May-19 12:33N 48°45' W 123°23'3 1.7
2016-May-19 10:33N 48°42' W 123°24'9 8.7
2016-May-19 09:33N 48°50' W 123°21'8 7.6
2016-May-19 08:34N 48°57' W 123°21'8 8.0
2016-May-19 07:34N 49°05' W 123°20'10 9.8
2016-May-19 06:34N 49°07' W 123°05'3 2.7
2016-May-19 05:34N 49°09' W 123°02'0 0.0
2016-May-19 04:34N 49°09' W 123°02'0 0.0
2016-May-19 03:34N 49°09' W 123°02'0 0.0
2016-May-19 02:34N 49°09' W 123°02'0 0.0
2016-May-19 01:33N 49°09' W 123°02'0 0.0
2016-May-19 00:34N 49°09' W 123°02'0 0.0
2016-May-18 23:34N 49°09' W 123°02'0 0.0
2016-May-18 22:34N 49°09' W 123°02'0 0.0
2016-May-18 21:33N 49°09' W 123°02'0 0.0
2016-May-18 20:34N 49°09' W 123°02'0 0.0
2016-May-18 19:34N 49°09' W 123°02'0 0.0
2016-May-18 18:33N 49°09' W 123°02'  
Track history (hours):
 
Tides and Currents Weather Stations Pressure Air Temp Water Temp Dewpoint Dewpoint Depression Visibility Wind Speed Wind Dir Waves Ship Positions

Arctic Taglu

Last reported at 2016-May-28 18:33 UTC. Time now 2016-May-30 14:36 UTC.
Position N 49°08' W 123°03'.

Length 33 m; draft 6 m.

Type: Tug. MMSI: 316003483.

Date/timePositionNaut miles runAvg speedWind from/ knotsBaromVisibWave heightAir tempDewpointWater temp
2016-May-28 18:33N 49°08' W 123°03'0 0.4
2016-May-28 17:33N 49°09' W 123°02'0 0.1
2016-May-28 16:33N 49°09' W 123°02'7 6.6
2016-May-28 15:33N 49°07' W 123°12'6 6.3
2016-May-28 14:33N 49°05' W 123°21'9 8.8
2016-May-28 13:34N 48°56' W 123°19'8 8.1
2016-May-28 12:33N 48°48' W 123°21'7 6.6
2016-May-28 11:26N 48°41' W 123°24'0 0.0
2016-May-28 10:33N 48°41' W 123°24'4 3.9
2016-May-28 09:33N 48°44' W 123°21'10 9.8
2016-May-28 08:33N 48°54' W 123°18'1010.2
2016-May-28 07:33N 49°04' W 123°20'8 8.2
2016-May-28 06:33N 49°07' W 123°08'4 4.3
2016-May-28 05:33N 49°09' W 123°02'0 0.0
2016-May-28 04:33N 49°09' W 123°02'0 0.0
2016-May-28 03:33N 49°09' W 123°02'0 0.0
2016-May-28 02:33N 49°09' W 123°02'0 0.0
2016-May-28 01:33N 49°09' W 123°02'0 0.0
2016-May-28 00:33N 49°09' W 123°02'0 0.0
2016-May-27 23:33N 49°09' W 123°02'0 0.0
2016-May-27 22:33N 49°09' W 123°02'0 0.0
2016-May-27 21:33N 49°09' W 123°02'0 0.0
2016-May-27 20:33N 49°09' W 123°02'0 0.0
2016-May-27 19:33N 49°09' W 123°02'0 0.0
2016-May-27 18:33N 49°09' W 123°02'0 0.0
2016-May-27 17:33N 49°09' W 123°02'4 4.1
2016-May-27 16:33N 49°07' W 123°07'6 5.6
2016-May-27 15:33N 49°07' W 123°16'6 6.2
2016-May-27 14:33N 49°01' W 123°20'8 8.0
2016-May-27 13:33N 48°54' W 123°18'9 8.6
2016-May-27 12:33N 48°45' W 123°22'4 4.3
2016-May-27 11:33N 48°41' W 123°24'0 0.0
2016-May-27 10:33N 48°41' W 123°24'4 4.2
2016-May-27 09:33N 48°45' W 123°21'10 9.7
2016-May-27 08:33N 48°54' W 123°18'1010.2
2016-May-27 07:33N 49°04' W 123°22'9 9.5
2016-May-27 06:33N 49°07' W 123°08'5 4.5
2016-May-27 05:33N 49°09' W 123°02'0 0.0
2016-May-27 04:33N 49°09' W 123°02'0 0.0
2016-May-27 03:33N 49°09' W 123°02'0 0.0
2016-May-27 02:33N 49°09' W 123°02'0 0.0
2016-May-27 01:33N 49°09' W 123°02'0 0.0
2016-May-27 00:33N 49°09' W 123°02'0 0.0
2016-May-26 23:33N 49°09' W 123°02'0 0.0
2016-May-26 22:33N 49°09' W 123°02'0 0.0
2016-May-26 21:33N 49°09' W 123°02'0 0.0
2016-May-26 20:33N 49°09' W 123°02'0 0.0
2016-May-26 19:33N 49°09' W 123°02'0 0.0
2016-May-26 18:33N 49°09' W 123°02'1 0.8
2016-May-26 17:33N 49°08' W 123°03'2 2.0
2016-May-26 16:33N 49°07' W 123°05'5 5.2
2016-May-26 15:33N 49°08' W 123°13'7 6.9
2016-May-26 14:33N 49°03' W 123°21'9 9.2
2016-May-26 13:33N 48°54' W 123°18'8 8.2
2016-May-26 12:33N 48°46' W 123°22'5 4.8
2016-May-26 11:33N 48°41' W 123°24'0 0.0
2016-May-26 10:33N 48°41' W 123°24'4 4.2
2016-May-26 09:33N 48°45' W 123°21'9 9.1
2016-May-26 08:33N 48°54' W 123°18'1010.0
2016-May-26 07:33N 49°04' W 123°21'9 8.8
2016-May-26 06:33N 49°07' W 123°08'4 4.5
2016-May-26 05:33N 49°09' W 123°02'0 0.0
2016-May-26 04:33N 49°09' W 123°02'0 0.0
2016-May-26 03:33N 49°09' W 123°02'0 0.0
2016-May-26 02:33N 49°09' W 123°02'0 0.0
2016-May-26 01:33N 49°09' W 123°02'0 0.0
2016-May-26 00:33N 49°09' W 123°02'0 0.0
2016-May-25 23:33N 49°09' W 123°02'0 0.0
2016-May-25 22:33N 49°09' W 123°02'0 0.0
2016-May-25 21:33N 49°09' W 123°02'0 0.0
2016-May-25 20:33N 49°09' W 123°02'0 0.0
2016-May-25 19:33N 49°09' W 123°02'0 0.0
2016-May-25 18:33N 49°09' W 123°02'0 0.0
2016-May-25 17:33N 49°09' W 123°02'3 3.2
2016-May-25 16:33N 49°07' W 123°06'6 5.8
2016-May-25 15:33N 49°08' W 123°15'6 5.8
2016-May-25 14:33N 49°03' W 123°20'8 8.0
2016-May-25 13:33N 48°55' W 123°18'8 8.1
2016-May-25 12:33N 48°47' W 123°21'6 6.3
2016-May-25 11:33N 48°41' W 123°24'0 0.0
2016-May-25 10:33N 48°41' W 123°24'4 3.9
2016-May-25 09:33N 48°44' W 123°21'9 9.0
2016-May-25 08:33N 48°53' W 123°18'10 9.9
2016-May-25 07:33N 49°03' W 123°21'9 8.6
2016-May-25 06:33N 49°07' W 123°09'5 4.7
2016-May-25 05:33N 49°09' W 123°02'0 0.4
2016-May-25 04:33N 49°08' W 123°03'0 0.1
2016-May-25 03:32N 49°08' W 123°03'0 0.0
2016-May-25 02:32N 49°08' W 123°03'0 0.0
2016-May-25 01:32N 49°08' W 123°03'0 0.0
2016-May-25 00:32N 49°08' W 123°03'  
2016-May-21 20:04N 49°08' W 123°03'0 0.0
2016-May-21 19:34N 49°08' W 123°03'0 0.0
2016-May-21 18:33N 49°08' W 123°03'0 0.5
2016-May-21 17:33N 49°09' W 123°02'5 5.4
2016-May-21 16:34N 49°07' W 123°10'6 5.8
2016-May-21 15:33N 49°06' W 123°19'8 8.3
2016-May-21 14:33N 48°58' W 123°18'7 6.8
2016-May-21 13:33N 48°51' W 123°21'9 8.9
2016-May-21 12:34N 48°43' W 123°24'1 1.4
2016-May-21 11:34N 48°41' W 123°24'0 0.0
2016-May-21 10:33N 48°41' W 123°24'7 7.0
2016-May-21 09:34N 48°48' W 123°21'8 8.0
2016-May-21 08:33N 48°56' W 123°18'1010.3
2016-May-21 07:34N 49°06' W 123°19'1110.5
2016-May-21 06:33N 49°09' W 123°03'1 0.6
2016-May-21 05:34N 49°09' W 123°02'0 0.0
2016-May-21 04:33N 49°09' W 123°02'0 0.0
2016-May-21 03:34N 49°09' W 123°02'0 0.0
2016-May-21 02:33N 49°09' W 123°02'0 0.0
2016-May-21 01:34N 49°09' W 123°02'0 0.0
2016-May-21 00:34N 49°09' W 123°02'0 0.0
2016-May-20 23:33N 49°09' W 123°02'0 0.0
2016-May-20 22:34N 49°09' W 123°02'0 0.0
2016-May-20 21:33N 49°09' W 123°02'0 0.0
2016-May-20 20:33N 49°09' W 123°02'0 0.0
2016-May-20 19:33N 49°09' W 123°02'0 0.0
2016-May-20 18:34N 49°09' W 123°02'0 0.0
2016-May-20 17:33N 49°09' W 123°02'5 4.8
2016-May-20 16:33N 49°06' W 123°09'6 5.6
2016-May-20 15:33N 49°07' W 123°17'7 7.5
2016-May-20 14:33N 48°59' W 123°18'8 7.8
2016-May-20 13:33N 48°52' W 123°20'7 7.3
2016-May-20 12:34N 48°44' W 123°23'3 3.3
2016-May-20 11:34N 48°41' W 123°24'0 0.0
2016-May-20 10:34N 48°41' W 123°24'5 4.7
2016-May-20 09:34N 48°45' W 123°21'8 7.6
2016-May-20 08:33N 48°53' W 123°18'9 9.4
2016-May-20 07:34N 49°02' W 123°20'8 8.2
2016-May-20 06:33N 49°07' W 123°09'5 5.2
2016-May-20 05:33N 49°09' W 123°02'0 0.0
2016-May-20 04:34N 49°09' W 123°02'0 0.0
2016-May-20 03:33N 49°09' W 123°02'0 0.0
2016-May-20 02:33N 49°09' W 123°02'0 0.0
2016-May-20 01:33N 49°09' W 123°02'0 0.0
2016-May-20 00:34N 49°09' W 123°02'0 0.0
2016-May-19 23:34N 49°09' W 123°02'0 0.0
2016-May-19 22:33N 49°09' W 123°02'0 0.0
2016-May-19 21:34N 49°09' W 123°02'0 0.0
2016-May-19 20:33N 49°09' W 123°02'0 0.0
2016-May-19 19:34N 49°09' W 123°02'0 0.0
2016-May-19 18:33N 49°09' W 123°02'1 0.6
2016-May-19 17:33N 49°08' W 123°03'5 4.8
2016-May-19 16:34N 49°07' W 123°10'5 5.3
2016-May-19 15:33N 49°06' W 123°18'7 7.4
2016-May-19 14:33N 48°59' W 123°17'8 7.6
2016-May-19 13:33N 48°52' W 123°20'7 7.1
2016-May-19 12:33N 48°45' W 123°23'3 1.7
2016-May-19 10:33N 48°42' W 123°24'9 8.7
2016-May-19 09:33N 48°50' W 123°21'8 7.6
2016-May-19 08:34N 48°57' W 123°21'8 8.0
2016-May-19 07:34N 49°05' W 123°20'10 9.8
2016-May-19 06:34N 49°07' W 123°05'3 2.7
2016-May-19 05:34N 49°09' W 123°02'0 0.0
2016-May-19 04:34N 49°09' W 123°02'0 0.0
2016-May-19 03:34N 49°09' W 123°02'0 0.0
2016-May-19 02:34N 49°09' W 123°02'0 0.0
2016-May-19 01:33N 49°09' W 123°02'0 0.0
2016-May-19 00:34N 49°09' W 123°02'0 0.0
2016-May-18 23:34N 49°09' W 123°02'0 0.0
2016-May-18 22:34N 49°09' W 123°02'0 0.0
2016-May-18 21:33N 49°09' W 123°02'0 0.0
2016-May-18 20:34N 49°09' W 123°02'0 0.0
2016-May-18 19:34N 49°09' W 123°02'0 0.0
2016-May-18 18:33N 49°09' W 123°02'  

Dump ship's entire track history